Annawan, Illinois
Current Conditions -  °F | °C
As of 7:15 AM on Friday 31 Oct 2014 (Local Time) from KSQI Reporting Station
Broken Clouds Broken Clouds  
Wind Chill: -6°   Ceiling: 3600
Heat Index:   Visibility: 10mi
Dew Point: -5°   Wind: 25mph
Humidity: 65%   Direction: 350°N
Pressure: 30.21"   Gusts: 30mph
Location:  41.4°N, 89.9°W
Report Text: KSQI 311215Z AUTO 35022G26KT 10SM FEW015 SCT028 BKN036 01/M05 A3021 RMK AO1
Loading
Personal Weather Stations






























Interactive Weather Map
Tropical Storm Tracking
New forecast layout! Learn more

10-Day Weather Forecast

Advertisements
Track Severe Weather on mobile